< < Back
Terminal Aerodrome Forecast


Current Version              Previous Versions:   1  2  3  4  5  6  7  8  9  

Terminal Aerodrome Forecast

745
FTUS44 KOHX 271100
TAFBNA
TAF
KBNA 271121Z 2712/2812 33004KT P6SM OVC070
     FM280200 01004KT P6SM SKC=



Latest METAR

311
SAUS70 KWBC 272200 RRO
MTRBNA
METAR KBNA 272153Z 32009KT 10SM OVC028 04/M02 A3013 RMK AO2 SLP206
T00391017


USA.gov is the U.S. government's official web portal to all federal, state and local government web resources and services.